地図

経路データ

SID SEASON NUMBER BASIN SUBBASIN NAME ISO_TIME NATURE LAT LON WMO_WIND WMO_PRES WMO_AGENCY TRACK_TYPE DIST2LAND LANDFALL IFLAG USA_AGENCY USA_ATCF_ID USA_LAT USA_LON USA_RECORD USA_STATUS USA_WIND USA_PRES USA_SSHS USA_R34_NE USA_R34_SE USA_R34_SW USA_R34_NW USA_R50_NE USA_R50_SE USA_R50_SW USA_R50_NW USA_R64_NE USA_R64_SE USA_R64_SW USA_R64_NW USA_POCI USA_ROCI USA_RMW USA_EYE TOKYO_LAT TOKYO_LON TOKYO_GRADE TOKYO_WIND TOKYO_PRES TOKYO_R50_DIR TOKYO_R50_LONG TOKYO_R50_SHORT TOKYO_R30_DIR TOKYO_R30_LONG TOKYO_R30_SHORT TOKYO_LAND CMA_LAT CMA_LON CMA_CAT CMA_WIND CMA_PRES HKO_LAT HKO_LON HKO_CAT HKO_WIND HKO_PRES NEWDELHI_LAT NEWDELHI_LON NEWDELHI_GRADE NEWDELHI_WIND NEWDELHI_PRES NEWDELHI_CI NEWDELHI_DP NEWDELHI_POCI REUNION_LAT REUNION_LON REUNION_TYPE REUNION_WIND REUNION_PRES REUNION_TNUM REUNION_CI REUNION_RMW REUNION_R34_NE REUNION_R34_SE REUNION_R34_SW REUNION_R34_NW REUNION_R50_NE REUNION_R50_SE REUNION_R50_SW REUNION_R50_NW REUNION_R64_NE REUNION_R64_SE REUNION_R64_SW REUNION_R64_NW BOM_LAT BOM_LON BOM_TYPE BOM_WIND BOM_PRES BOM_TNUM BOM_CI BOM_RMW BOM_R34_NE BOM_R34_SE BOM_R34_SW BOM_R34_NW BOM_R50_NE BOM_R50_SE BOM_R50_SW BOM_R50_NW BOM_R64_NE BOM_R64_SE BOM_R64_SW BOM_R64_NW BOM_ROCI BOM_POCI BOM_EYE BOM_POS_METHOD BOM_PRES_METHOD NADI_LAT NADI_LON NADI_CAT NADI_WIND NADI_PRES WELLINGTON_LAT WELLINGTON_LON WELLINGTON_WIND WELLINGTON_PRES DS824_LAT DS824_LON DS824_STAGE DS824_WIND DS824_PRES TD9636_LAT TD9636_LON TD9636_STAGE TD9636_WIND TD9636_PRES TD9635_LAT TD9635_LON TD9635_WIND TD9635_PRES TD9635_ROCI NEUMANN_LAT NEUMANN_LON NEUMANN_CLASS NEUMANN_WIND NEUMANN_PRES MLC_LAT MLC_LON MLC_CLASS MLC_WIND MLC_PRES USA_GUST BOM_GUST BOM_GUST_PER REUNION_GUST REUNION_GUST_PER USA_SEAHGT USA_SEARAD_NE USA_SEARAD_SE USA_SEARAD_SW USA_SEARAD_NW STORM_SPEED STORM_DIR
1983082S11180 1983 16 SP MM SARAH 1983-03-22 18:00:00 TS -11.2000 180.300 main 561 548 O___________O_ jtwc_sh SH181983 -11.2000 -179.700 25 -1 -11.2000 -179.700 TC 25 12 255
1983082S11180 1983 16 SP MM SARAH 1983-03-22 21:00:00 TS -11.3578 179.685 main 537 528 P___________P_ SH181983 -11.3578 179.685 25 -1 -11.3578 179.685 TC 25 12 256
1983082S11180 1983 16 SP MM SARAH 1983-03-23 00:00:00 TS -11.5000 179.100 main 531 524 O___________O_ jtwc_sh SH181983 -11.5000 179.100 25 -1 -11.5000 179.100 TC 25 11 257
1983082S11180 1983 16 SP MM SARAH 1983-03-23 03:00:00 TS -11.6149 178.570 main 531 525 P___________P_ SH181983 -11.6149 178.570 25 -1 -11.6149 178.570 TC 25 10 258
1983082S11180 1983 16 SP MM SARAH 1983-03-23 06:00:00 TS -11.7000 178.100 main 536 536 O___________O_ jtwc_sh SH181983 -11.7000 178.100 25 -1 -11.7000 178.100 TC 25 9 261
1983082S11180 1983 16 SP MM SARAH 1983-03-23 09:00:00 TS -11.7575 177.662 main 539 539 P___________P_ SH181983 -11.7575 177.662 25 -1 -11.7575 177.662 TC 25 8 257
1983082S11180 1983 16 SP MM SARAH 1983-03-23 12:00:00 TS -11.8800 177.310 30 997 wellington main 546 543 O_______O_O_O_ jtwc_sh SH181983 -11.8000 177.300 25 -1 -12.0000 177.500 30 997 -12.4000 177.200 1 -11.8000 177.300 TC 25 6 248
1983082S11180 1983 16 SP MM SARAH 1983-03-23 15:00:00 TS -11.9868 177.084 main 543 537 P_______P_P_P_ SH181983 -11.8275 176.990 25 -1 -12.1110 177.358 30 997 -12.5001 177.185 1 -11.8275 176.990 TC 25 4 234
1983082S11180 1983 16 SP MM SARAH 1983-03-23 18:00:00 TS -12.1202 176.972 main 537 521 O_______P_P_O_ jtwc_sh SH181983 -11.9000 176.800 25 -1 -12.2276 177.233 30 997 -12.6001 177.172 1 -11.9000 176.800 TC 25 3 203
1983082S11180 1983 16 SP MM SARAH 1983-03-23 21:00:00 TS -12.2989 176.950 main 517 496 P_______P_P_P_ SH181983 -12.0700 176.748 25 -1 -12.3554 177.141 30 997 -12.7002 177.164 1 -12.0700 176.748 TC 25 4 0
1983082S11180 1983 16 SP MM SARAH 1983-03-24 00:00:00 TS -12.4751 176.966 30 997 wellington main 496 475 O_______O_P_O_ jtwc_sh SH181983 -12.3000 176.800 25 -1 -12.5000 177.100 30 997 -12.8002 177.165 1 -12.3000 176.800 TC 25 4 171
1983082S11180 1983 16 SP MM SARAH 1983-03-24 03:00:00 TS -12.6737 177.010 main 475 451 P_______P_P_P_ SH181983 -12.5650 176.870 25 -1 -12.6646 177.122 31 996 -12.9003 177.176 1 -12.5650 176.870 TC 25 4 161
1983082S11180 1983 16 SP MM SARAH 1983-03-24 06:00:00 TS -12.8607 177.101 main 451 437 O_______P_P_O_ jtwc_sh SH181983 -12.8000 177.000 25 -1 -12.8424 177.202 32 996 -13.0002 177.201 1 -12.8000 177.000 TC 25 4 145
1983082S11180 1983 16 SP MM SARAH 1983-03-24 09:00:00 TS -12.9885 177.236 main 437 417 P_______P_P_P_ SH181983 -12.9150 177.185 27 -1 -13.0240 177.332 33 995 -13.1001 177.241 1 -12.9150 177.185 TC 27 4 129
1983082S11180 1983 16 SP MM SARAH 1983-03-24 12:00:00 TS -13.1000 177.400 35 995 wellington main 417 398 O_______O_O_O_ jtwc_sh SH181983 -13.0000 177.400 30 -1 -13.2000 177.500 35 995 -13.2000 177.300 2 -13.0000 177.400 TC 30 4 126
1983082S11180 1983 16 SP MM SARAH 1983-03-24 15:00:00 TS -13.2236 177.562 main 398 374 P_______P_P_P_ SH181983 -13.1200 177.593 32 -1 -13.3531 177.681 36 993 -13.3014 177.382 2 -13.1200 177.593 TC 32 4 129
1983082S11180 1983 16 SP MM SARAH 1983-03-24 18:00:00 TS -13.3780 177.749 main 374 341 O_______P_P_O_ jtwc_sh SH181983 -13.3000 177.800 35 0 -13.5000 177.898 37 992 -13.4122 177.500 2 -13.3000 177.800 TC 35 5 132
1983082S11180 1983 16 SP MM SARAH 1983-03-24 21:00:00 TS -13.5897 177.973 main 341 312 P_______P_P_P_ SH181983 -13.5850 178.042 37 0 -13.6468 178.140 38 991 -13.5419 177.668 2 -13.5850 178.042 TC 37 6 134
1983082S11180 1983 16 SP MM SARAH 1983-03-25 00:00:00 TS -13.8250 178.225 40 990 wellington main 312 278 O_______O_O_O_ jtwc_sh SH181983 -13.9000 178.300 40 0 -13.8000 178.400 40 990 -13.7000 177.900 2 -13.9000 178.300 TC 40 7 132
1983082S11180 1983 16 SP MM SARAH 1983-03-25 03:00:00 TS -14.0374 178.493 main 278 246 P_______P_P_P_ SH181983 -14.1649 178.535 45 0 -13.9435 178.673 41 989 -13.8763 178.230 2 -14.1649 178.535 TC 45 7 127
1983082S11180 1983 16 SP MM SARAH 1983-03-25 06:00:00 TS -14.2452 178.794 main 246 215 O_______P_P_O_ jtwc_sh SH181983 -14.4000 178.800 50 0 -14.0976 178.958 42 988 -14.0831 178.620 2 -14.4000 178.800 TC 50 8 124
1983082S11180 1983 16 SP MM SARAH 1983-03-25 09:00:00 TS -14.4541 179.137 main 204 170 P_______P_P_P_ SH181983 -14.6075 179.143 52 0 -14.2779 179.239 43 987 -14.3232 179.024 2 -14.6075 179.143 TC 52 8 123
1983082S11180 1983 16 SP MM SARAH 1983-03-25 12:00:00 TS -14.6750 179.475 45 987 wellington main 170 145 O_______O_O_O_ jtwc_sh SH181983 -14.8000 179.500 55 0 -14.5000 179.500 45 987 -14.6000 179.400 4 -14.8000 179.500 TC 55 8 129
1983082S11180 1983 16 SP MM SARAH 1983-03-25 15:00:00 TS -14.9401 179.767 main 145 112 P_______P_P_P_ SH181983 -15.0000 179.823 60 0 -14.8061 179.726 46 986 -14.9544 179.698 4 -15.0000 179.823 TC 60 8 136
1983082S11180 1983 16 SP MM SARAH 1983-03-25 18:00:00 TS -15.2218 180.022 main 112 84 O_______P_P_O_ jtwc_sh SH181983 -15.2000 -179.900 65 1 -15.1498 179.930 47 986 -15.3372 179.960 4 -15.2000 -179.900 TC 65 7 141
1983082S11180 1983 16 SP MM SARAH 1983-03-25 21:00:00 TS -15.4987 180.235 main 84 77 P_______P_P_P_ SH181983 -15.3999 -179.685 67 1 -15.4937 -179.881 48 985 -15.7014 -179.808 4 -15.3999 -179.685 TC 67 7 144
1983082S11180 1983 16 SP MM SARAH 1983-03-26 00:00:00 TS -15.7500 180.425 50 985 wellington main 77 69 O_______O_O_O_ jtwc_sh SH181983 -15.6000 -179.500 70 1 -15.8000 -179.700 50 985 -16.0000 -179.600 4 -15.6000 -179.500 TC 70 6 141
1983082S11180 1983 16 SP MM SARAH 1983-03-26 03:00:00 TS -15.9440 180.612 main 82 78 P_______P_P_P_ SH181983 -15.8075 -179.307 70 1 -16.0180 -179.526 52 982 -16.1432 -179.411 4 -15.8075 -179.307 TC 70 5 135
1983082S11180 1983 16 SP MM SARAH 1983-03-26 06:00:00 TS -16.1043 180.800 main 96 96 O_______P_P_O_ jtwc_sh SH181983 -16.0000 -179.100 70 1 -16.1948 -179.357 55 980 -16.2222 -179.242 4 -16.0000 -179.100 TC 70 5 127
1983082S11180 1983 16 SP MM SARAH 1983-03-26 09:00:00 TS -16.2348 181.010 main 117 117 P_______P_P_P_ SH181983 -16.1500 -178.850 72 1 -16.3492 -179.185 57 977 -16.2901 -179.076 4 -16.1500 -178.850 TC 72 5 124
1983082S11180 1983 16 SP MM SARAH 1983-03-26 12:00:00 TS -16.3750 181.225 60 975 wellington main 140 140 O_______O_O_O_ jtwc_sh SH181983 -16.3000 -178.600 75 1 -16.5000 -179.000 60 975 -16.4000 -178.900 4 -16.3000 -178.600 TC 75 5 127
1983082S11180 1983 16 SP MM SARAH 1983-03-26 15:00:00 TS -16.5563 181.454 main 171 171 P_______P_P_P_ SH181983 -16.4850 -178.385 77 1 -16.6467 -178.757 63 971 -16.6086 -178.657 4 -16.4850 -178.385 TC 77 6 132
1983082S11180 1983 16 SP MM SARAH 1983-03-26 18:00:00 TS -16.7664 181.672 main 191 191 O_______P_P_O_ jtwc_sh SH181983 -16.7000 -178.200 80 1 -16.7978 -178.505 67 967 -16.8678 -178.406 4 -16.7000 -178.200 TC 80 6 138
1983082S11180 1983 16 SP MM SARAH 1983-03-26 21:00:00 TS -17.0032 181.873 main 214 214 P_______P_P_P_ SH181983 -16.9350 -178.027 82 1 -16.9749 -178.276 71 963 -17.1680 -178.176 4 -16.9350 -178.027 TC 82 6 146
1983082S11180 1983 16 SP MM SARAH 1983-03-27 00:00:00 TS -17.2750 182.025 75 960 wellington main 230 230 O_______O_O_O_ jtwc_sh SH181983 -17.2000 -177.900 85 2 -17.2000 -178.100 75 960 -17.5000 -178.000 4 -17.2000 -177.900 TC 85 6 158
1983082S11180 1983 16 SP MM SARAH 1983-03-27 03:00:00 TS -17.5758 182.117 main 250 250 P_______P_P_P_ SH181983 -17.4850 -177.827 87 2 -17.4873 -177.989 78 955 -17.8461 -177.889 4 -17.4850 -177.827 TC 90 7 169
1983082S11180 1983 16 SP MM SARAH 1983-03-27 06:00:00 TS -17.9111 182.156 main 273 273 O_______P_P_O_ jtwc_sh SH181983 -17.8000 -177.800 90 2 -17.8248 -177.938 82 950 -18.2198 -177.838 4 -17.8000 -177.800 TC 95 952 7 176
1983082S11180 1983 16 SP MM SARAH 1983-03-27 09:00:00 TS -18.2734 182.165 main 296 296 P_______P_P_P_ SH181983 -18.1425 -177.778 90 2 -18.1999 -177.943 86 945 -18.6086 -177.842 4 -18.1425 -177.778 TC 92 7 183
1983082S11180 1983 16 SP MM SARAH 1983-03-27 12:00:00 TS -18.6500 182.125 90 940 wellington main 308 308 O_______O_O_O_ jtwc_sh SH181983 -18.5000 -177.800 90 2 -18.6000 -178.000 90 940 -19.0000 -177.900 4 -18.5000 -177.800 TC 90 7 189
1983082S11180 1983 16 SP MM SARAH 1983-03-27 15:00:00 TS -18.9979 182.048 main 331 331 P_______P_P_P_ SH181983 -18.8349 -177.855 87 2 -18.9872 -178.091 87 943 -19.3345 -178.008 4 -18.8349 -177.855 TC 87 8 197
1983082S11180 1983 16 SP MM SARAH 1983-03-27 18:00:00 TS -19.3682 181.901 main 359 359 O_______P_P_O_ jtwc_sh SH181983 -19.2000 -178.000 85 2 -19.3976 -178.233 85 947 -19.6752 -178.162 4 -19.2000 -178.000 TC 85 9 204
1983082S11180 1983 16 SP MM SARAH 1983-03-27 21:00:00 TS -19.7819 181.676 main 368 359 P_______P_P_P_ SH181983 -19.6201 -178.277 85 2 -19.8341 -178.407 82 951 -20.0533 -178.336 4 -19.6201 -178.277 TC 85 10 207
1983082S11180 1983 16 SP MM SARAH 1983-03-28 00:00:00 TS -20.2500 181.425 80 955 wellington main 368 375 O_______O_O_O_ jtwc_sh SH181983 -20.1000 -178.600 85 2 -20.3000 -178.600 80 955 -20.5000 -178.500 4 -20.1000 -178.600 TC 85 11 205
1983082S11180 1983 16 SP MM SARAH 1983-03-28 03:00:00 TS -20.7685 181.195 main 399 399 P_______P_P_P_ SH181983 -20.6200 -178.887 82 1 -20.7964 -178.813 77 957 -21.0374 -178.633 4 -20.6200 -178.887 TC 82 12 201
1983082S11180 1983 16 SP MM SARAH 1983-03-28 06:00:00 TS -21.3221 180.990 main 431 431 O_______P_P_O_ jtwc_sh SH181983 -21.2000 -179.100 80 1 -21.3203 -179.036 75 960 -21.6499 -178.737 4 -21.2000 -179.100 TC 80 12 196
1983082S11180 1983 16 SP MM SARAH 1983-03-28 09:00:00 TS -21.9100 180.849 main 478 478 P_______P_P_P_ SH181983 -21.8349 -179.188 77 1 -21.8590 -179.241 72 962 -22.3125 -178.823 4 -21.8349 -179.188 TC 77 12 190
1983082S11180 1983 16 SP MM SARAH 1983-03-28 12:00:00 TS -22.5077 180.762 70 965 wellington main 538 538 O_______O_O_O_ jtwc_sh SH181983 -22.5000 -179.200 75 1 -22.4000 -179.400 70 965 -23.0000 -178.900 2 -22.5000 -179.200 TC 75 12 187
1983082S11180 1983 16 SP MM SARAH 1983-03-28 15:00:00 TS -23.0953 180.689 main 596 596 P_______P___P_ SH181983 -23.1725 -179.215 72 1 -22.9410 -179.504 67 967 2 -23.1725 -179.215 TC 72 12 183
1983082S11180 1983 16 SP MM SARAH 1983-03-28 18:00:00 TS -23.6932 180.682 main 657 657 O_______P___O_ jtwc_sh SH181983 -23.8000 -179.200 70 1 -23.4797 -179.555 65 970 2 -23.8000 -179.200 TC 70 11 0
1983082S11180 1983 16 SP MM SARAH 1983-03-28 21:00:00 TS -24.2312 180.713 main 708 708 P_______P___P_ SH181983 -24.3375 -179.172 67 1 -24.0035 -179.554 62 972 2 -24.3525 -179.135 TC 67 10 176
1983082S11180 1983 16 SP MM SARAH 1983-03-29 00:00:00 TS -24.6909 180.755 60 975 wellington main 764 764 O_______O___O_ jtwc_sh SH181983 -24.8000 -179.100 65 1 -24.5000 -179.500 60 975 -24.8000 -179.100 TC 65 8 179
1983082S11180 1983 16 SP MM SARAH 1983-03-29 03:00:00 TS -25.0369 180.716 main 792 792 P_______P___P_ SH181983 -25.2126 -178.968 62 0 -24.8710 -179.505 57 977 -25.1150 -179.222 TC 62 7 185
1983082S11180 1983 16 SP MM SARAH 1983-03-29 06:00:00 TS -25.3454 180.691 main 824 824 O_______P___O_ jtwc_sh SH181983 -25.6000 -178.800 60 0 -25.2272 -179.446 55 980 -25.4000 -179.300 TC 60 6 176
1983082S11180 1983 16 SP MM SARAH 1983-03-29 09:00:00 TS -25.6697 180.755 main 869 869 ________P___P_ SH181983 -1 -25.6449 -179.264 52 982 -25.6944 -179.225 TC 57 9 157
1983082S11180 1983 16 SP MM SARAH 1983-03-29 12:00:00 TS -26.2000 181.100 50 985 wellington main 932 932 ________O___O_ -1 -26.2000 -178.900 50 985 -26.2000 -178.900 TC 55 16 149
1983082S11180 1983 16 SP MM SARAH 1983-03-29 15:00:00 TS -27.0469 181.674 main 1036 1036 ________P___P_ -1 -26.9610 -178.396 48 985 -27.1328 -178.256 TC 52 22 147
1983082S11180 1983 16 SP MM SARAH 1983-03-29 18:00:00 TS -28.0313 182.456 main 1123 1073 ________P___O_ -1 -27.8626 -177.687 47 986 -28.2000 -177.400 TC 50 24 143
1983082S11180 1983 16 SP MM SARAH 1983-03-29 21:00:00 TS -28.9415 183.313 main 1073 1025 ________P___P_ -1 -28.8579 -176.760 46 986 -29.0250 -176.614 TC 45 25 138
1983082S11180 1983 16 SP MM SARAH 1983-03-30 00:00:00 TS -29.9000 184.400 45 987 wellington main 1020 992 ________O___O_ -1 -29.9000 -175.600 45 987 -29.9000 -175.600 TC 40 30 134
1983082S11180 1983 16 SP MM SARAH 1983-03-30 03:00:00 TS -30.9872 185.799 main 995 993 ________P___P_ -1 -30.9318 -174.223 43 987 -31.0426 -174.179 TC 35 34 130
1983082S11180 1983 16 SP MM SARAH 1983-03-30 06:00:00 TS -32.0918 187.445 main 1014 1014 ________P___O_ -1 -31.9835 -172.610 42 988 -32.2000 -172.500 TC 30 36 126
1983082S11180 1983 16 SP MM SARAH 1983-03-30 09:00:00 TS -33.0803 189.184 main 1086 1086 ________P___P_ -1 -33.0174 -170.841 41 989 -33.1431 -170.790 TC 30 35 123
1983082S11180 1983 16 SP MM SARAH 1983-03-30 12:00:00 TS -34.0000 191.000 40 990 wellington main 1187 1187 ________O___O_ -1 -34.0000 -169.000 40 990 -34.0000 -169.000 TC 30 35 121
1983082S11180 1983 16 SP MM SARAH 1983-03-30 15:00:00 TS -34.8841 192.835 main 1305 1305 ________P___P_ -1 -34.9053 -167.169 40 990 -34.8629 -167.162 TC 30 35 120
1983082S11180 1983 16 SP MM SARAH 1983-03-30 18:00:00 TS -35.7268 194.704 main 1447 1447 ________P___O_ -1 -35.7537 -165.292 40 990 -35.7000 -165.300 TC 30 35 118
1983082S11180 1983 16 SP MM SARAH 1983-03-30 21:00:00 TS -36.5352 196.582 main 1595 1595 ________P___P_ -1 -36.5495 -163.419 40 990 -36.5209 -163.418 TC 30 34 118
1983082S11180 1983 16 SP MM SARAH 1983-03-31 00:00:00 TS -37.3000 198.400 40 990 wellington main 1739 1739 ________O___O_ -1 -37.3000 -161.600 40 990 -37.3000 -161.600 TC 30 32 118
1983082S11180 1983 16 SP MM SARAH 1983-03-31 03:00:00 TS -38.0512 200.147 main 1877 1877 ________P___P_ -1 -38.0835 -159.789 40 990 -38.0188 -159.916 TC 30 31 118
1983082S11180 1983 16 SP MM SARAH 1983-03-31 06:00:00 TS -38.7600 201.824 main 2018 2018 ________P___O_ -1 -38.8201 -158.052 40 990 -38.7000 -158.300 TC 30 30 118
1983082S11180 1983 16 SP MM SARAH 1983-03-31 09:00:00 TS -39.4411 203.504 main 2160 2160 ________P___P_ -1 -39.4711 -156.436 40 990 -39.4111 -156.555 TC 30 27 117
1983082S11180 1983 16 SP MM SARAH 1983-03-31 12:00:00 TS -40.0000 205.000 40 990 wellington main 2285 2285 ________O___O_ -1 -40.0000 -155.000 40 990 -40.0000 -155.000 TC 30 22 115
1983082S11180 1983 16 SP MM SARAH 1983-03-31 15:00:00 TS -40.3919 206.160 main 2385 2385 ________P___P_ -1 -40.4204 -153.782 40 990 -40.3634 -153.898 TC 30 17 112
1983082S11180 1983 16 SP MM SARAH 1983-03-31 18:00:00 TS -40.6623 207.122 main 2460 2460 ________P___O_ -1 -40.7246 -152.756 40 990 -40.6000 -153.000 TC 30 15 109
1983082S11180 1983 16 SP MM SARAH 1983-03-31 21:00:00 TS -40.8809 208.081 main 2543 2543 ________P___P_ -1 -40.9173 -151.853 40 990 -40.8445 -151.985 TC 30 15 103
1983082S11180 1983 16 SP MM SARAH 1983-04-01 00:00:00 TS -41.0000 209.000 40 990 wellington main 2617 2617 ________O___O_ -1 -41.0000 -151.000 40 990 -41.0000 -151.000 TC 30 14 98
1983082S11180 1983 16 SP MM SARAH 1983-04-01 03:00:00 TS -41.0810 209.872 main 2691 2691 ________P___P_ -1 -41.0954 -150.179 40 990 -41.0666 -150.078 TC 30 13 92
1983082S11180 1983 16 SP MM SARAH 1983-04-01 06:00:00 TS -41.0368 210.710 main 2759 2759 ________P___O_ -1 -41.0735 -149.379 40 990 -41.0000 -149.200 TC 30 13 81
1983082S11180 1983 16 SP MM SARAH 1983-04-01 09:00:00 TS -40.8825 211.528 main 2827 2827 ________P___P_ -1 -40.8906 -148.514 40 990 -40.8743 -148.430 TC 30 15 68
1983082S11180 1983 16 SP MM SARAH 1983-04-01 12:00:00 TS -40.5000 212.500 40 990 wellington main 2915 2915 ________O___O_ -1 -40.5000 -147.500 40 990 -40.5000 -147.500 TC 30 21 57
1983082S11180 1983 16 SP MM SARAH 1983-04-01 15:00:00 TS -39.7475 213.826 main 3034 3034 ________P___P_ -1 -39.7465 -146.177 40 990 -39.7485 -146.171 TC 30 27 51
1983082S11180 1983 16 SP MM SARAH 1983-04-01 18:00:00 TS -38.7988 215.278 main 3176 3176 ________P___O_ -1 -38.7975 -144.744 40 990 -38.8000 -144.700 TC 30 29 49
1983082S11180 1983 16 SP MM SARAH 1983-04-01 21:00:00 TS -37.8242 216.697 main 3316 3316 ________P___P_ -1 -37.8234 -143.318 40 990 -37.8250 -143.288 TC 30 28 50
1983082S11180 1983 16 SP MM SARAH 1983-04-02 00:00:00 TS -37.0000 218.000 40 990 wellington main 3448 3448 ________O___O_ -1 -37.0000 -142.000 40 990 -37.0000 -142.000 TC 30 23 55
1983082S11180 1983 16 SP MM SARAH 1983-04-02 03:00:00 TS -36.5264 219.029 main 3548 3548 ________P___P_ -1 -36.5174 -140.990 38 991 -36.5353 -140.952 TC 30 17 65
1983082S11180 1983 16 SP MM SARAH 1983-04-02 06:00:00 TS -36.2601 219.972 main 3640 3640 ________P___O_ -1 -36.2203 -140.056 37 992 -36.3000 -140.000 TC 30 16 74
1983082S11180 1983 16 SP MM SARAH 1983-04-02 09:00:00 TS -36.0866 220.915 main 3723 3723 ________P___P_ -1 -36.0637 -139.093 36 993 -36.1095 -139.076 TC 30 17 81
1983082S11180 1983 16 SP MM SARAH 1983-04-02 12:00:00 TS -36.0000 222.000 35 995 wellington main 3821 3821 ________O___O_ -1 -36.0000 -138.000 35 995 -36.0000 -138.000 TC 30 21 84
1983082S11180 1983 16 SP MM SARAH 1983-04-02 15:00:00 TS -35.8709 223.452 main 3953 3953 ________P___P_ -1 -35.8787 -136.522 33 995 -35.8631 -136.574 TC 30 25 86
1983082S11180 1983 16 SP MM SARAH 1983-04-02 18:00:00 TS -35.8147 225.038 main 4086 4086 ________P___O_ -1 -35.8293 -134.924 32 996 -35.8000 -135.000 TC 30 26 90
1983082S11180 1983 16 SP MM SARAH 1983-04-02 21:00:00 TS -35.8560 226.616 main 4168 4150 ________P___P_ -1 -35.8633 -133.364 31 996 -35.8487 -133.404 TC 27 24 94
1983082S11180 1983 16 SP MM SARAH 1983-04-03 00:00:00 TS -36.0000 228.000 30 997 wellington main 4149 4123 ________O___O_ -1 -36.0000 -132.000 30 997 -36.0000 -132.000 TC 25 20 101
1983082S11180 1983 16 SP MM SARAH 1983-04-03 03:00:00 TS -36.2218 229.015 main 4123 4087 ________P___P_ -1 -36.2563 -130.948 30 997 -36.1873 -131.022 TC 25 15 111
1983082S11180 1983 16 SP MM SARAH 1983-04-03 06:00:00 TS -36.5567 229.772 main 4075 4029 ________P___O_ -1 -36.6133 -130.157 30 997 -36.5000 -130.300 TC 25 14 125
1983082S11180 1983 16 SP MM SARAH 1983-04-03 09:00:00 TS -36.9992 230.409 main 4029 3971 ________P___P_ -1 -37.0395 -129.537 30 997 -36.9590 -129.645 TC 22 14 134
1983082S11180 1983 16 SP MM SARAH 1983-04-03 12:00:00 TS -37.5000 231.000 30 997 wellington main 3971 ________O___O_ -1 -37.5000 -129.000 30 997 -37.5000 -129.000 TC 20 14 137

デジタル台風データ・検索

IBTrACS Databaseについて

本データベースは、米国NOAAが公開する1842年以降の世界の熱帯低気圧のベストトラックデータアーカイブInternational Best Track Archive for Climate Stewardship (IBTrACS)を、ウェブで閲覧しやすい形式に変換したものです。

最終更新日:2021-10-19